Time;durP1;ratioP1;P1;durP2;ratioP2;P2;SDS_P1;SDS_P2;PMS_P1;PMS_P2;Temp;Humidity;BMP_temperature;BMP_pressure;BME280_temperature;BME280_humidity;BME280_pressure;Samples;Min_cycle;Max_cycle;Signal;HPM_P1;HPM_P2
2021/05/29 00:01:27;;;;;;;3.42;2.95;;;13.20;71.00;;;;;;5072542;28;20033;-71
2021/05/29 00:03:52;;;;;;;3.15;2.85;;;13.20;71.20;;;;;;5073960;28;20380;-72
2021/05/29 00:06:18;;;;;;;5.47;2.95;;;13.20;71.30;;;;;;5073928;28;20025;-72
2021/05/29 00:08:44;;;;;;;5.45;3.13;;;13.10;71.30;;;;;;5072627;28;20025;-72
2021/05/29 00:11:10;;;;;;;4.20;3.05;;;13.10;71.50;;;;;;5073828;28;20372;-72
2021/05/29 00:13:37;;;;;;;4.95;3.20;;;13.10;71.60;;;;;;5073851;28;20502;-72
2021/05/29 00:16:03;;;;;;;4.57;3.35;;;13.10;71.70;;;;;;5073763;28;20024;-71
2021/05/29 00:18:29;;;;;;;3.47;3.17;;;13.00;71.70;;;;;;5072354;28;20498;-71
2021/05/29 00:20:55;;;;;;;4.32;3.28;;;13.00;71.80;;;;;;5073703;28;20017;-71
2021/05/29 00:23:21;;;;;;;4.65;3.10;;;13.00;71.90;;;;;;5073683;28;20127;-72
2021/05/29 00:25:47;;;;;;;6.50;3.83;;;13.00;72.60;;;;;;5073522;28;20090;-72
2021/05/29 00:28:15;;;;;;;5.43;3.35;;;13.10;72.00;;;;;;5073654;28;20028;-72
2021/05/29 00:30:42;;;;;;;4.88;3.58;;;13.10;72.10;;;;;;5073505;28;20090;-72
2021/05/29 00:33:08;;;;;;;5.57;3.60;;;13.10;72.20;;;;;;5072187;28;20414;-72
2021/05/29 00:35:34;;;;;;;5.38;4.07;;;13.00;72.20;;;;;;5072373;28;20028;-71
2021/05/29 00:38:00;;;;;;;4.22;3.50;;;13.00;72.40;;;;;;5073304;28;20028;-71
2021/05/29 00:40:26;;;;;;;6.50;3.78;;;12.90;72.50;;;;;;5072052;28;20024;-71
2021/05/29 00:42:52;;;;;;;8.55;3.80;;;12.80;72.60;;;;;;5073290;28;20025;-71
2021/05/29 00:45:18;;;;;;;6.95;4.03;;;12.80;72.80;;;;;;5073837;28;20357;-72
2021/05/29 00:47:43;;;;;;;5.50;3.80;;;12.80;73.00;;;;;;5071968;28;20021;-72
2021/05/29 00:50:12;;;;;;;6.93;4.10;;;12.70;73.10;;;;;;5073202;28;20021;-71
2021/05/29 00:52:39;;;;;;;5.63;3.80;;;12.70;73.20;;;;;;5073254;28;20036;-71
2021/05/29 00:55:08;;;;;;;6.25;3.60;;;12.70;73.30;;;;;;5073227;28;20059;-72
2021/05/29 00:57:34;;;;;;;6.93;3.60;;;12.70;73.40;;;;;;5071804;28;20035;-72
2021/05/29 00:59:59;;;;;;;5.90;3.40;;;12.70;73.40;;;;;;5072994;28;20040;-71
2021/05/29 01:02:26;;;;;;;4.13;3.13;;;12.60;73.30;;;;;;5073292;28;20468;-71
2021/05/29 01:04:52;;;;;;;3.80;2.83;;;12.60;73.30;;;;;;5071774;28;20036;-72
2021/05/29 01:07:18;;;;;;;5.90;3.15;;;12.60;73.20;;;;;;5071716;28;20086;-71
2021/05/29 01:09:45;;;;;;;4.47;2.95;;;12.60;73.30;;;;;;5072795;28;20028;-72
2021/05/29 01:12:14;;;;;;;5.13;2.80;;;12.60;73.30;;;;;;5072930;28;20446;-71
2021/05/29 01:14:56;;;;;;;7.55;2.97;;;12.50;73.20;;;;;;5073821;28;20035;-72
2021/05/29 01:17:22;;;;;;;5.35;2.63;;;12.50;73.20;;;;;;5073796;28;20024;-72
2021/05/29 01:19:49;;;;;;;3.42;2.50;;;12.50;73.10;;;;;;5072580;28;20100;-72
2021/05/29 01:22:33;;;;;;;4.35;2.72;;;12.50;73.10;;;;;;5072845;28;20490;-72
2021/05/29 01:24:59;;;;;;;2.72;2.10;;;12.40;73.00;;;;;;5072824;28;20028;-71
2021/05/29 01:27:25;;;;;;;3.08;2.42;;;12.50;73.00;;;;;;5072815;28;20029;-71
2021/05/29 01:29:51;;;;;;;2.55;2.35;;;12.50;73.00;;;;;;5072777;28;20029;-72
2021/05/29 01:32:22;;;;;;;2.97;2.30;;;12.40;72.90;;;;;;5071535;28;20025;-72
2021/05/29 01:34:48;;;;;;;4.18;2.28;;;12.40;72.80;;;;;;5071402;28;20139;-71
2021/05/29 01:37:14;;;;;;;2.30;1.90;;;12.40;72.80;;;;;;5072726;28;20099;-72
2021/05/29 01:39:39;;;;;;;2.95;2.03;;;12.30;72.70;;;;;;5072697;28;20032;-71
2021/05/29 01:42:05;;;;;;;3.97;2.20;;;12.30;72.60;;;;;;5072696;28;20088;-71
2021/05/29 01:44:32;;;;;;;2.80;2.17;;;12.30;72.60;;;;;;5072868;28;20032;-71
2021/05/29 01:46:58;;;;;;;2.17;1.75;;;12.30;72.60;;;;;;5071337;28;20165;-72
2021/05/29 01:49:25;;;;;;;2.90;2.30;;;12.30;72.50;;;;;;5071416;28;20111;-72
2021/05/29 01:51:51;;;;;;;3.28;2.10;;;12.20;72.50;;;;;;5071239;28;20021;-72
2021/05/29 01:54:16;;;;;;;3.85;2.17;;;12.20;72.50;;;;;;5072572;28;20332;-71
2021/05/29 01:56:43;;;;;;;2.50;2.20;;;12.20;72.50;;;;;;5071417;28;20430;-72
2021/05/29 01:59:08;;;;;;;2.65;1.85;;;12.10;72.50;;;;;;5072338;28;20063;-72
2021/05/29 02:01:34;;;;;;;2.40;2.20;;;12.10;72.50;;;;;;5070982;28;20106;-71
2021/05/29 02:04:00;;;;;;;3.97;2.30;;;12.10;72.60;;;;;;5071186;28;20025;-71
2021/05/29 02:06:25;;;;;;;4.18;2.60;;;12.10;72.60;;;;;;5071228;28;20056;-71
2021/05/29 02:08:51;;;;;;;4.82;3.03;;;12.10;72.60;;;;;;5071057;28;20046;-72
2021/05/29 02:11:17;;;;;;;2.80;2.50;;;12.10;72.60;;;;;;5072565;28;20415;-71
2021/05/29 02:13:43;;;;;;;2.90;2.28;;;12.00;72.60;;;;;;5070958;28;20024;-71
2021/05/29 02:16:10;;;;;;;3.75;2.53;;;12.00;72.60;;;;;;5071119;28;20471;-71
2021/05/29 02:18:37;;;;;;;2.25;2.00;;;12.00;72.70;;;;;;5071051;28;20119;-71
2021/05/29 02:21:16;;;;;;;2.42;2.22;;;12.00;72.70;;;;;;5071112;28;20115;-72
2021/05/29 02:23:47;;;;;;;3.45;2.38;;;12.00;72.80;;;;;;5075918;28;20024;-71
2021/05/29 02:26:16;;;;;;;3.83;2.63;;;12.00;72.80;;;;;;5074643;28;20333;-71
2021/05/29 02:28:44;;;;;;;4.80;2.90;;;11.90;72.70;;;;;;5074699;28;20024;-71
2021/05/29 02:31:13;;;;;;;3.03;2.65;;;11.90;72.90;;;;;;5075808;28;20021;-71
2021/05/29 02:33:39;;;;;;;4.78;2.90;;;11.90;73.00;;;;;;5074504;28;20384;-71
2021/05/29 02:36:06;;;;;;;3.83;2.80;;;11.90;73.10;;;;;;5076320;28;20025;-75
2021/05/29 02:38:35;;;;;;;4.80;2.83;;;11.80;73.20;;;;;;5075637;28;20112;-74
2021/05/29 02:41:03;;;;;;;4.07;2.75;;;11.80;73.30;;;;;;5075670;28;20472;-73
2021/05/29 02:43:29;;;;;;;4.60;3.00;;;11.80;73.40;;;;;;5074223;28;20012;-74
2021/05/29 02:45:55;;;;;;;5.30;3.38;;;11.80;73.50;;;;;;5074238;28;20025;-73
2021/05/29 02:48:21;;;;;;;4.32;3.03;;;11.80;73.60;;;;;;5075576;28;20406;-71
2021/05/29 02:50:47;;;;;;;4.85;3.45;;;11.70;73.60;;;;;;5075343;28;20044;-71
2021/05/29 02:53:15;;;;;;;6.07;3.10;;;11.70;73.70;;;;;;5075354;28;20025;-71
2021/05/29 02:55:41;;;;;;;4.85;3.10;;;11.70;73.80;;;;;;5075324;28;20040;-71
2021/05/29 02:58:07;;;;;;;4.05;3.15;;;11.70;73.80;;;;;;5075225;28;20387;-71
2021/05/29 03:00:45;;;;;;;3.97;3.10;;;11.70;73.80;;;;;;5073782;28;20064;-71
2021/05/29 03:03:12;;;;;;;3.00;2.70;;;11.70;74.00;;;;;;5075096;28;20435;-71
2021/05/29 03:05:43;;;;;;;4.05;2.97;;;11.70;73.90;;;;;;5075165;28;20082;-71
2021/05/29 03:08:11;;;;;;;5.60;3.50;;;11.60;73.90;;;;;;5075027;28;20035;-71
2021/05/29 03:10:36;;;;;;;5.30;3.20;;;11.60;74.00;;;;;;5074772;28;20131;-71
2021/05/29 03:13:02;;;;;;;5.55;3.88;;;11.60;74.00;;;;;;5073694;28;20028;-71
2021/05/29 03:15:28;;;;;;;5.38;3.58;;;11.60;74.10;;;;;;5075522;28;20056;-72
2021/05/29 03:17:55;;;;;;;6.95;3.70;;;11.60;74.20;;;;;;5074799;28;20499;-71
2021/05/29 03:20:24;;;;;;;5.53;3.67;;;11.60;74.20;;;;;;5073408;28;20027;-71
2021/05/29 03:22:50;;;;;;;6.65;4.10;;;11.60;74.20;;;;;;5074866;28;20028;-72
2021/05/29 03:25:17;;;;;;;6.30;4.20;;;11.50;74.20;;;;;;5074653;28;20017;-71
2021/05/29 03:27:44;;;;;;;7.47;4.13;;;11.50;74.40;;;;;;5074780;28;20035;-71
2021/05/29 03:30:12;;;;;;;5.68;3.50;;;11.50;75.10;;;;;;5074484;28;20528;-71
2021/05/29 03:32:38;;;;;;;6.47;4.40;;;11.50;74.50;;;;;;5074317;28;20029;-72
2021/05/29 03:35:08;;;;;;;5.45;4.00;;;11.50;74.60;;;;;;5073185;28;20070;-71
2021/05/29 03:37:34;;;;;;;5.70;4.00;;;11.50;74.60;;;;;;5074543;28;20028;-71
2021/05/29 03:40:00;;;;;;;5.78;3.80;;;11.40;74.70;;;;;;5073102;28;20434;-71
2021/05/29 03:42:25;;;;;;;5.57;3.92;;;11.40;74.70;;;;;;5072925;28;20020;-71
2021/05/29 03:44:52;;;;;;;5.35;3.88;;;11.40;74.80;;;;;;5074398;28;20467;-71
2021/05/29 03:47:18;;;;;;;6.97;3.97;;;11.40;74.80;;;;;;5074468;28;20111;-71
2021/05/29 03:49:43;;;;;;;6.53;4.38;;;11.40;74.90;;;;;;5074153;28;20480;-71
2021/05/29 03:52:10;;;;;;;6.20;4.10;;;11.40;74.90;;;;;;5072792;28;20020;-71
2021/05/29 03:54:36;;;;;;;7.75;4.40;;;11.40;75.00;;;;;;5072913;28;20090;-72
2021/05/29 03:57:02;;;;;;;5.22;4.15;;;11.40;75.00;;;;;;5073054;28;20028;-71
2021/05/29 03:59:28;;;;;;;7.30;4.78;;;11.40;75.00;;;;;;5073802;28;20028;-71
2021/05/29 04:01:54;;;;;;;5.47;4.03;;;11.40;75.10;;;;;;5072656;28;20074;-71
2021/05/29 04:04:19;;;;;;;6.28;4.30;;;11.40;75.10;;;;;;5072697;28;20023;-72
2021/05/29 04:06:45;;;;;;;7.32;4.13;;;11.40;75.10;;;;;;5072743;28;20020;-71
2021/05/29 04:09:11;;;;;;;6.32;4.35;;;11.40;75.10;;;;;;5072471;28;20025;-71
2021/05/29 04:11:37;;;;;;;6.07;4.38;;;11.40;75.10;;;;;;5072532;28;20064;-72
2021/05/29 04:14:10;;;;;;;6.07;4.13;;;11.40;75.10;;;;;;5072278;28;20027;-71
2021/05/29 04:16:35;;;;;;;6.38;4.40;;;11.50;75.20;;;;;;5073763;28;20069;-71
2021/05/29 04:19:01;;;;;;;6.28;3.97;;;11.50;75.00;;;;;;5072212;28;20502;-71
2021/05/29 04:21:28;;;;;;;5.35;4.13;;;11.50;75.00;;;;;;5073288;28;20396;-71
2021/05/29 04:23:55;;;;;;;4.75;3.75;;;11.50;75.00;;;;;;5071934;28;20024;-71
2021/05/29 04:26:21;;;;;;;7.18;3.75;;;11.50;74.90;;;;;;5073225;28;20031;-71
2021/05/29 04:28:48;;;;;;;6.97;4.38;;;11.60;74.90;;;;;;5073190;28;20359;-72
2021/05/29 04:31:13;;;;;;;6.53;3.90;;;11.60;74.90;;;;;;5071884;28;20026;-71
2021/05/29 04:33:39;;;;;;;5.85;3.70;;;11.50;74.80;;;;;;5073158;28;20028;-71
2021/05/29 04:36:05;;;;;;;5.18;3.88;;;11.60;74.90;;;;;;5073103;28;20077;-71
2021/05/29 04:38:31;;;;;;;6.03;4.10;;;11.60;74.90;;;;;;5073453;28;20028;-71
2021/05/29 04:40:56;;;;;;;6.65;4.55;;;11.60;74.80;;;;;;5071718;28;20044;-71
2021/05/29 04:43:22;;;;;;;7.93;4.55;;;11.70;74.90;;;;;;5071779;28;20017;-71
2021/05/29 04:45:48;;;;;;;7.63;4.95;;;11.70;74.80;;;;;;5071298;28;20016;-71
2021/05/29 04:48:17;;;;;;;5.93;4.38;;;11.70;74.90;;;;;;5071820;28;20024;-71
2021/05/29 04:53:26;;;;;;;6.93;4.68;;;11.80;74.90;;;;;;5073515;28;20399;-71
2021/05/29 04:55:53;;;;;;;6.78;4.88;;;11.80;74.90;;;;;;5072949;28;20028;-71
2021/05/29 04:58:20;;;;;;;7.32;4.97;;;11.80;74.90;;;;;;5071769;28;20064;-72
2021/05/29 05:00:45;;;;;;;7.13;4.93;;;11.80;75.00;;;;;;5071507;28;20045;-71
2021/05/29 05:03:11;;;;;;;7.28;4.93;;;11.90;75.00;;;;;;5072883;28;20146;-72
2021/05/29 05:05:36;;;;;;;8.00;5.10;;;11.90;75.00;;;;;;5071718;28;20029;-72
2021/05/29 05:08:02;;;;;;;7.32;5.28;;;11.90;75.10;;;;;;5072876;28;20029;-72
2021/05/29 05:10:28;;;;;;;7.72;5.43;;;11.90;75.10;;;;;;5071711;28;20472;-72
2021/05/29 05:12:54;;;;;;;7.30;5.20;;;12.00;75.10;;;;;;5071358;28;20119;-72
2021/05/29 05:15:19;;;;;;;7.72;5.55;;;12.00;75.10;;;;;;5071488;28;20086;-72
2021/05/29 05:17:45;;;;;;;9.07;6.10;;;11.90;75.20;;;;;;5071373;28;20028;-72
2021/05/29 05:20:11;;;;;;;8.57;6.20;;;12.00;75.30;;;;;;5072692;28;20017;-72
2021/05/29 05:22:37;;;;;;;10.60;6.18;;;12.00;75.50;;;;;;5071245;28;20024;-72
2021/05/29 05:25:06;;;;;;;9.15;6.25;;;12.00;75.50;;;;;;5071238;28;20090;-72
2021/05/29 05:27:33;;;;;;;8.60;5.57;;;12.00;75.50;;;;;;5072712;28;20074;-72
2021/05/29 05:30:00;;;;;;;8.18;6.35;;;12.10;75.60;;;;;;5073160;28;20048;-72
2021/05/29 05:32:26;;;;;;;9.75;6.63;;;12.10;75.60;;;;;;5072656;28;20104;-71
2021/05/29 05:34:51;;;;;;;8.68;5.72;;;12.10;75.70;;;;;;5072794;28;20051;-72
2021/05/29 05:37:17;;;;;;;9.40;6.30;;;12.10;75.70;;;;;;5072584;28;20028;-72
2021/05/29 05:39:43;;;;;;;9.88;6.05;;;12.20;75.70;;;;;;5072450;28;20074;-71
2021/05/29 05:42:09;;;;;;;7.45;6.10;;;12.20;75.70;;;;;;5071294;28;20031;-72
2021/05/29 05:44:35;;;;;;;10.02;5.97;;;12.20;75.70;;;;;;5071336;28;20017;-72
2021/05/29 05:47:01;;;;;;;7.95;5.70;;;12.30;75.70;;;;;;5071293;28;20021;-72
2021/05/29 05:49:27;;;;;;;7.30;5.82;;;12.40;75.60;;;;;;5071231;28;20387;-72
2021/05/29 05:51:53;;;;;;;9.25;6.43;;;12.40;75.50;;;;;;5072420;28;20017;-72
2021/05/29 05:54:19;;;;;;;9.50;6.13;;;12.50;75.50;;;;;;5071240;28;20582;-71
2021/05/29 05:56:45;;;;;;;6.95;5.28;;;12.50;75.50;;;;;;5073290;28;20029;-71
2021/05/29 05:59:10;;;;;;;8.63;5.88;;;12.60;75.40;;;;;;5076105;28;20025;-73
2021/05/29 06:01:38;;;;;;;8.18;5.72;;;12.60;75.30;;;;;;5074629;28;20063;-72
2021/05/29 06:04:04;;;;;;;7.60;5.63;;;12.70;75.40;;;;;;5076010;28;20086;-72
2021/05/29 06:06:30;;;;;;;6.65;5.22;;;12.70;75.30;;;;;;5074659;28;20100;-72
2021/05/29 06:08:55;;;;;;;7.38;5.55;;;12.70;75.10;;;;;;5075986;28;20387;-72
2021/05/29 06:11:22;;;;;;;7.95;5.20;;;12.80;75.10;;;;;;5074562;28;20491;-72
2021/05/29 06:19:15;;;;;;;7.10;5.05;;;12.90;74.80;;;;;;5075881;28;20098;-72
2021/05/29 06:21:48;;;;;;;5.43;4.75;;;13.00;74.70;;;;;;5074471;28;20032;-72
2021/05/29 06:24:16;;;;;;;5.95;4.80;;;13.10;74.50;;;;;;5075685;28;20439;-72
2021/05/29 06:26:42;;;;;;;8.35;4.88;;;13.10;74.30;;;;;;5074473;28;20498;-72
2021/05/29 06:29:08;;;;;;;6.05;4.80;;;13.20;74.20;;;;;;5074118;28;20027;-72
2021/05/29 06:31:35;;;;;;;6.22;4.72;;;13.20;74.10;;;;;;5075318;28;20066;-72
2021/05/29 06:34:01;;;;;;;6.38;4.47;;;13.30;74.00;;;;;;5074200;28;20031;-72
2021/05/29 06:36:27;;;;;;;6.47;5.00;;;13.30;73.80;;;;;;5076065;28;20127;-72
2021/05/29 06:38:53;;;;;;;6.55;4.53;;;13.40;73.80;;;;;;5075764;28;20078;-71
2021/05/29 06:41:18;;;;;;;5.78;5.00;;;13.40;73.70;;;;;;5075333;28;20096;-72
2021/05/29 06:43:44;;;;;;;8.63;4.78;;;13.50;73.60;;;;;;5074065;28;20052;-72
2021/05/29 06:46:10;;;;;;;9.18;4.90;;;13.50;73.50;;;;;;5073974;28;20017;-72
2021/05/29 06:48:35;;;;;;;6.65;4.97;;;13.60;73.30;;;;;;5074083;28;20029;-72
2021/05/29 06:51:01;;;;;;;7.25;5.25;;;13.70;73.20;;;;;;5074125;28;20032;-72
2021/05/29 06:53:41;;;;;;;6.68;5.53;;;13.70;73.00;;;;;;5073997;28;20052;-72
2021/05/29 06:58:52;;;;;;;9.50;5.32;;;13.80;72.70;;;;;;5075255;28;20036;-72
2021/05/29 07:01:23;;;;;;;7.57;5.20;;;13.80;72.60;;;;;;5074894;28;20044;-72
2021/05/29 07:03:49;;;;;;;7.43;5.22;;;13.90;72.60;;;;;;5073867;28;20024;-72
2021/05/29 07:06:15;;;;;;;11.25;5.68;;;13.90;72.50;;;;;;5073733;28;20031;-72
2021/05/29 07:08:41;;;;;;;6.88;5.22;;;13.90;72.40;;;;;;5073145;28;20031;-72
2021/05/29 07:11:08;;;;;;;9.23;5.18;;;14.00;72.30;;;;;;5073686;28;20028;-72
2021/05/29 07:13:34;;;;;;;6.75;5.25;;;14.00;72.30;;;;;;5075160;28;20039;-72
2021/05/29 07:16:00;;;;;;;8.20;5.63;;;14.10;72.30;;;;;;5074991;28;20388;-72
2021/05/29 07:18:31;;;;;;;6.65;4.80;;;14.10;72.30;;;;;;5074828;28;20043;-73
2021/05/29 07:20:57;;;;;;;7.78;5.57;;;14.20;72.10;;;;;;5073594;28;20027;-73
2021/05/29 07:23:22;;;;;;;7.03;5.28;;;14.30;72.00;;;;;;5073422;28;20025;-74
2021/05/29 07:25:48;;;;;;;7.22;4.63;;;14.40;71.80;;;;;;5073386;28;20028;-73
2021/05/29 07:28:15;;;;;;;6.60;5.03;;;14.40;71.70;;;;;;5074648;28;20119;-75
2021/05/29 07:30:42;;;;;;;7.22;5.05;;;14.50;71.60;;;;;;5074594;28;20567;-74
2021/05/29 07:33:08;;;;;;;7.03;5.00;;;14.60;71.40;;;;;;5073310;28;20075;-73
2021/05/29 07:35:33;;;;;;;7.45;4.47;;;14.60;71.20;;;;;;5074540;28;20028;-73
2021/05/29 07:37:59;;;;;;;5.55;4.43;;;14.60;71.10;;;;;;5072939;28;20377;-74
2021/05/29 07:40:25;;;;;;;7.93;5.00;;;14.70;71.10;;;;;;5073044;28;20067;-74
2021/05/29 07:42:50;;;;;;;5.97;4.45;;;14.70;70.80;;;;;;5073072;28;20052;-74
2021/05/29 07:45:16;;;;;;;4.95;4.28;;;14.80;70.70;;;;;;5074300;28;20469;-74
2021/05/29 07:47:43;;;;;;;6.20;4.65;;;14.70;70.50;;;;;;5074470;28;20460;-74
2021/05/29 07:50:10;;;;;;;6.65;5.13;;;14.70;70.40;;;;;;5074103;28;20033;-74
2021/05/29 07:52:36;;;;;;;6.00;4.85;;;14.70;70.50;;;;;;5072826;28;20038;-74
2021/05/29 07:55:02;;;;;;;8.02;5.15;;;14.70;70.60;;;;;;5072538;28;20035;-74
2021/05/29 07:57:28;;;;;;;7.28;4.72;;;14.80;70.60;;;;;;5073980;28;20028;-74
2021/05/29 07:59:54;;;;;;;7.82;4.72;;;14.80;70.40;;;;;;5073887;28;20423;-73
2021/05/29 08:02:19;;;;;;;5.57;4.28;;;14.90;70.30;;;;;;5074036;28;20025;-74
2021/05/29 08:04:45;;;;;;;6.47;5.20;;;15.00;70.20;;;;;;5072813;28;20025;-74
2021/05/29 08:07:10;;;;;;;5.63;4.30;;;15.00;69.80;;;;;;5072748;28;20031;-74
2021/05/29 08:09:36;;;;;;;4.88;3.95;;;15.10;69.70;;;;;;5073884;28;20139;-75
2021/05/29 08:12:02;;;;;;;7.68;4.70;;;15.10;69.60;;;;;;5072524;28;20025;-74
2021/05/29 08:14:28;;;;;;;6.85;5.10;;;15.20;69.60;;;;;;5072417;28;20112;-75
2021/05/29 08:16:53;;;;;;;6.93;5.10;;;15.40;69.20;;;;;;5074353;28;20066;-74
2021/05/29 08:19:19;;;;;;;6.55;4.57;;;15.30;68.90;;;;;;5072896;28;20037;-74
2021/05/29 08:21:49;;;;;;;6.35;4.55;;;15.40;69.00;;;;;;5072511;28;20552;-75
2021/05/29 08:24:14;;;;;;;6.78;3.88;;;15.40;68.70;;;;;;5072242;28;20102;-73
2021/05/29 08:26:40;;;;;;;7.80;5.38;;;15.40;68.70;;;;;;5073555;28;20025;-72
2021/05/29 08:29:09;;;;;;;6.75;4.10;;;15.50;68.60;;;;;;5072354;28;20058;-73
2021/05/29 08:31:35;;;;;;;5.38;4.40;;;15.60;68.50;;;;;;5073710;28;20060;-74
2021/05/29 08:34:01;;;;;;;8.77;4.13;;;15.80;68.30;;;;;;5072795;28;20032;-74
2021/05/29 08:36:27;;;;;;;5.97;4.38;;;15.90;67.90;;;;;;5072074;28;20392;-72
2021/05/29 08:38:53;;;;;;;7.45;4.32;;;15.90;67.70;;;;;;5072041;28;20039;-73
2021/05/29 08:41:18;;;;;;;5.82;4.03;;;16.10;67.60;;;;;;5073846;28;20459;-74
2021/05/29 08:43:44;;;;;;;6.47;4.85;;;16.20;67.30;;;;;;5073378;28;20047;-74
2021/05/29 08:46:10;;;;;;;5.38;3.83;;;16.30;66.80;;;;;;5073460;28;20031;-74
2021/05/29 08:48:40;;;;;;;5.75;3.88;;;16.30;66.80;;;;;;5072236;28;20056;-73
2021/05/29 08:51:13;;;;;;;6.18;4.85;;;16.30;66.90;;;;;;5073311;28;20108;-74
2021/05/29 08:53:51;;;;;;;6.07;4.68;;;16.30;66.50;;;;;;5073350;28;20035;-73
2021/05/29 08:56:19;;;;;;;5.97;4.18;;;16.30;66.50;;;;;;5071877;28;20025;-73
2021/05/29 08:58:45;;;;;;;5.55;4.15;;;16.40;66.50;;;;;;5073344;28;20028;-73
2021/05/29 09:01:11;;;;;;;5.00;3.97;;;16.60;66.30;;;;;;5072894;28;20090;-73
2021/05/29 09:03:52;;;;;;;5.05;3.63;;;16.70;66.10;;;;;;5073081;28;20028;-73
2021/05/29 09:06:40;;;;;;;4.63;3.65;;;16.90;65.70;;;;;;5072960;28;20467;-73
2021/05/29 09:09:11;;;;;;;4.97;3.80;;;17.00;65.40;;;;;;5073128;28;20444;-73
2021/05/29 09:11:38;;;;;;;4.43;3.22;;;17.20;65.30;;;;;;5071798;28;20060;-72
2021/05/29 09:14:24;;;;;;;4.28;3.72;;;17.30;65.20;;;;;;5071767;28;20032;-75
2021/05/29 09:17:24;;;;;;;5.85;3.60;;;17.50;65.00;;;;;;5065817;28;20040;-76
2021/05/29 09:20:09;;;;;;;5.18;4.00;;;17.50;64.50;;;;;;5050946;28;20451;-75
2021/05/29 09:22:39;;;;;;;5.75;3.83;;;17.60;64.60;;;;;;5071723;28;20111;-75
2021/05/29 09:25:08;;;;;;;7.00;5.00;;;17.70;64.30;;;;;;5073553;28;20441;-74
2021/05/29 09:27:36;;;;;;;7.00;4.65;;;17.80;64.30;;;;;;5071941;28;20037;-75
2021/05/29 09:30:05;;;;;;;5.47;4.20;;;17.80;63.60;;;;;;5071747;28;20048;-74
2021/05/29 09:32:34;;;;;;;5.93;4.28;;;17.70;63.50;;;;;;5075550;28;20402;-74
2021/05/29 09:35:06;;;;;;;5.53;4.00;;;17.70;63.50;;;;;;5075922;28;20025;-74
2021/05/29 09:37:32;;;;;;;4.75;3.72;;;17.70;63.60;;;;;;5077419;28;20067;-73
2021/05/29 09:40:09;;;;;;;6.53;5.20;;;17.80;63.60;;;;;;5076934;28;20032;-74
2021/05/29 09:42:40;;;;;;;5.88;5.18;;;17.80;63.10;;;;;;5076966;28;20094;-73
2021/05/29 09:45:25;;;;;;;5.47;4.10;;;17.80;63.10;;;;;;5075938;28;20025;-74
2021/05/29 09:48:27;;;;;;;6.03;3.80;;;17.80;63.30;;;;;;5075551;28;20365;-74
2021/05/29 09:51:01;;;;;;;6.20;4.43;;;18.00;63.30;;;;;;5034849;28;20037;-74
2021/05/29 09:53:44;;;;;;;5.22;4.43;;;18.10;62.70;;;;;;5070610;28;20045;-75
2021/05/29 09:56:40;;;;;;;4.05;3.65;;;18.10;62.70;;;;;;5076499;28;20115;-74
2021/05/29 09:59:08;;;;;;;5.22;4.60;;;18.00;62.30;;;;;;5076427;28;20024;-74
2021/05/29 10:01:51;;;;;;;6.97;4.15;;;18.00;62.20;;;;;;5074918;28;20032;-74
2021/05/29 10:04:22;;;;;;;5.82;3.67;;;18.10;62.40;;;;;;5075025;28;20094;-74
2021/05/29 10:07:14;;;;;;;7.35;4.70;;;18.20;62.40;;;;;;5074930;28;20060;-75
2021/05/29 10:09:41;;;;;;;4.97;4.30;;;18.30;61.50;;;;;;5072687;28;20381;-75
2021/05/29 10:12:07;;;;;;;5.82;4.28;;;18.20;61.20;;;;;;5076266;28;20373;-75
2021/05/29 10:18:00;;;;;;;5.78;3.90;;;18.20;61.60;;;;;;5077284;28;20023;-72
2021/05/29 10:20:26;;;;;;;4.22;3.45;;;18.10;61.60;;;;;;5076229;28;20028;-74
2021/05/29 10:22:52;;;;;;;5.10;3.80;;;18.20;61.40;;;;;;5075316;28;20539;-73
2021/05/29 10:25:20;;;;;;;5.30;3.55;;;18.30;61.40;;;;;;5076319;28;20032;-73
2021/05/29 10:27:51;;;;;;;3.55;3.20;;;18.50;61.00;;;;;;5076140;28;20103;-71
2021/05/29 10:30:23;;;;;;;5.70;3.45;;;18.70;60.80;;;;;;5075930;28;20039;-73
2021/05/29 10:33:08;;;;;;;7.82;4.20;;;18.90;60.50;;;;;;5074650;28;20388;-72
2021/05/29 10:35:42;;;;;;;5.72;3.65;;;18.90;59.50;;;;;;5075861;28;20028;-72
2021/05/29 10:38:08;;;;;;;4.57;3.70;;;18.80;59.70;;;;;;5074500;28;20036;-73
2021/05/29 10:40:38;;;;;;;5.65;3.55;;;18.80;60.10;;;;;;5074563;28;20029;-72
2021/05/29 10:43:07;;;;;;;6.10;3.50;;;18.80;59.10;;;;;;5074419;28;20484;-73
2021/05/29 10:45:35;;;;;;;4.80;3.25;;;18.70;59.30;;;;;;5075721;28;20025;-74
2021/05/29 10:48:14;;;;;;;3.65;3.10;;;18.60;59.40;;;;;;5074680;28;20077;-74
2021/05/29 10:53:35;;;;;;;3.05;2.60;;;18.70;59.70;;;;;;5075815;28;20123;-74
2021/05/29 10:56:16;;;;;;;3.20;2.55;;;18.80;59.60;;;;;;5074185;28;20033;-72
2021/05/29 10:59:07;;;;;;;3.72;3.00;;;19.00;59.40;;;;;;5074224;28;20180;-73
2021/05/29 11:01:33;;;;;;;4.90;3.35;;;19.00;58.70;;;;;;5075205;28;20048;-73
2021/05/29 11:04:21;;;;;;;3.55;3.22;;;19.10;58.70;;;;;;5073988;28;20549;-71
2021/05/29 11:06:57;;;;;;;3.28;2.85;;;19.10;58.50;;;;;;5073931;28;20063;-70
2021/05/29 11:09:26;;;;;;;3.90;3.08;;;19.10;58.70;;;;;;5073739;28;20447;-70
2021/05/29 11:12:04;;;;;;;7.35;4.00;;;19.10;58.90;;;;;;5073414;28;20449;-70
2021/05/29 11:14:50;;;;;;;5.78;3.70;;;19.10;58.70;;;;;;5075160;28;20059;-70
2021/05/29 11:17:23;;;;;;;3.33;2.55;;;19.00;58.60;;;;;;5075316;28;20033;-69
2021/05/29 11:20:14;;;;;;;4.50;3.22;;;18.90;58.80;;;;;;5073777;28;20056;-70
2021/05/29 11:22:46;;;;;;;5.13;3.35;;;19.00;58.40;;;;;;5073630;28;20110;-70
2021/05/29 11:25:15;;;;;;;3.38;2.88;;;19.20;57.90;;;;;;5073517;28;20021;-70
2021/05/29 11:27:42;;;;;;;4.00;3.15;;;19.30;57.70;;;;;;5073664;28;20113;-69
2021/05/29 11:30:14;;;;;;;3.65;3.15;;;19.30;57.70;;;;;;5073502;28;20553;-70
2021/05/29 11:35:45;;;;;;;5.28;3.10;;;19.20;58.00;;;;;;5074621;28;20052;-70
2021/05/29 11:38:26;;;;;;;3.50;2.75;;;19.10;58.20;;;;;;5073150;28;20029;-69
2021/05/29 11:41:08;;;;;;;3.75;2.60;;;19.10;58.20;;;;;;5073110;28;20104;-70
2021/05/29 11:43:48;;;;;;;4.25;2.53;;;19.20;58.20;;;;;;5073038;28;20364;-69
2021/05/29 11:46:21;;;;;;;2.65;2.35;;;19.50;58.00;;;;;;5072964;28;20013;-69
2021/05/29 11:48:48;;;;;;;3.00;2.63;;;19.70;57.50;;;;;;5074287;28;20035;-69
2021/05/29 11:51:18;;;;;;;4.90;3.08;;;19.80;56.90;;;;;;5072796;28;20028;-70
2021/05/29 11:53:49;;;;;;;3.58;2.90;;;19.70;56.90;;;;;;5073096;28;20020;-70
2021/05/29 11:56:20;;;;;;;4.53;3.00;;;19.70;56.80;;;;;;5074325;28;20067;-69
2021/05/29 11:58:51;;;;;;;5.50;2.50;;;19.60;56.60;;;;;;5074149;28;20028;-70
2021/05/29 12:01:19;;;;;;;2.35;2.15;;;19.50;57.00;;;;;;5074253;28;20063;-69
2021/05/29 12:03:49;;;;;;;3.42;2.30;;;19.60;57.10;;;;;;5074207;28;20483;-69
2021/05/29 12:06:44;;;;;;;3.28;2.30;;;19.80;56.90;;;;;;5072847;28;20387;-69
2021/05/29 12:09:23;;;;;;;2.83;2.22;;;20.00;56.60;;;;;;5073786;28;20036;-69
2021/05/29 12:11:50;;;;;;;3.45;2.50;;;20.10;56.10;;;;;;5072468;28;20085;-70
2021/05/29 12:14:25;;;;;;;3.83;3.00;;;20.10;56.00;;;;;;5072468;28;20058;-70
2021/05/29 12:16:53;;;;;;;3.97;2.80;;;19.90;55.60;;;;;;5072448;28;20036;-69
2021/05/29 12:19:54;;;;;;;4.68;2.80;;;19.80;56.10;;;;;;5073464;28;20132;-69
2021/05/29 12:22:22;;;;;;;2.95;2.47;;;19.80;55.90;;;;;;5032386;28;20038;-69
2021/05/29 12:25:05;;;;;;;2.95;2.30;;;19.90;55.80;;;;;;5065628;28;20039;-70
2021/05/29 12:27:33;;;;;;;3.03;2.33;;;20.10;55.60;;;;;;5073644;28;20476;-69
2021/05/29 12:30:08;;;;;;;2.60;2.40;;;20.20;55.10;;;;;;5073483;28;20037;-69
2021/05/29 12:32:37;;;;;;;3.58;2.45;;;20.20;55.00;;;;;;5074042;28;20112;-69
2021/05/29 12:35:03;;;;;;;4.57;2.53;;;20.20;55.00;;;;;;5072096;28;20036;-70
2021/05/29 12:37:31;;;;;;;3.60;2.85;;;20.20;55.20;;;;;;5073549;28;20059;-69
2021/05/29 12:40:03;;;;;;;3.95;2.63;;;20.20;55.30;;;;;;5073739;28;20032;-70
2021/05/29 12:42:49;;;;;;;3.08;2.22;;;20.10;55.40;;;;;;5072260;28;20016;-69
2021/05/29 12:45:19;;;;;;;4.93;2.53;;;20.20;55.40;;;;;;5073515;28;20104;-70
2021/05/29 12:47:55;;;;;;;2.67;2.40;;;20.30;54.50;;;;;;5072123;28;20025;-71
2021/05/29 12:50:24;;;;;;;4.68;2.80;;;20.40;54.50;;;;;;5073540;28;20107;-71
2021/05/29 12:52:50;;;;;;;4.00;2.90;;;20.50;53.90;;;;;;5072089;28;20025;-71
2021/05/29 12:55:25;;;;;;;2.95;2.50;;;20.50;53.70;;;;;;5073187;28;20036;-71
2021/05/29 12:57:52;;;;;;;3.22;2.92;;;20.30;53.90;;;;;;5073420;28;20056;-71
2021/05/29 13:00:30;;;;;;;4.10;2.70;;;20.20;54.10;;;;;;5072066;28;20403;-71
2021/05/29 13:09:21;;;;;;;2.72;2.20;;;20.60;53.60;;;;;;5073681;28;19950;-71
2021/05/29 13:11:38;;;;;;;4.10;2.47;;;20.70;53.70;;;;;;5070154;28;20373;-71
2021/05/29 13:14:09;;;;;;;2.28;2.03;;;20.80;53.80;;;;;;5073194;28;20077;-70
2021/05/29 13:16:59;;;;;;;3.63;1.90;;;20.90;54.00;;;;;;5071940;28;20052;-69
2021/05/29 13:19:30;;;;;;;4.72;2.38;;;21.10;53.90;;;;;;5073321;28;20499;-70
2021/05/29 13:22:01;;;;;;;2.78;2.10;;;21.30;53.60;;;;;;5073121;28;20086;-70